首页
METAR-TAF:

METAR-TAF

机场 :

Kirksville Regional Airport

Kirksville, 密蘇里州, 美国

纬度: 40-05-50N, 经度: 092-32-36W, 海拔: 294米

当前天气观测

该预报发布于47分钟前的17:55 UTC
风速6节,风向西
温度 28°C
湿度 58%
气压 1019 hPa
能見度: 16.1公里
天空无云

METAR: KIRK 261755Z AUTO 27006KT 10SM CLR 28/19 A3008 RMK AO2 SLP183 T02830194 10283 20206 58001

时间: 13:42 (18:42 UTC)


TAF: 丢失

超过4000个机场的气象观测和天气预报(METAR&TAF报告)。

可查询的气象台以黄色和红色小点在地图上表示。

将鼠标移到小点上方,可查看气象台名称。

然后点击查看天气观测和预报。

如需切换地图:点击带黑十字的绿色按钮放大地图;点击带横线的绿色按钮缩小地图;或者点击绿色箭头查看邻近地区的地图。


METAR-TAF: